createdAt,value
2022-10-30T00:00:08.649Z,2.40
2022-10-30T00:01:10.287Z,2.53
2022-10-30T00:02:12.197Z,2.10
2022-10-30T00:03:15.243Z,2.30
2022-10-30T00:04:17.100Z,2.20
2022-10-30T00:05:20.962Z,2.20
2022-10-30T00:06:22.620Z,2.78
2022-10-30T00:07:24.358Z,2.58
2022-10-30T00:08:26.054Z,2.20
2022-10-30T00:09:27.745Z,2.40
2022-10-30T00:10:29.381Z,2.40
2022-10-30T00:11:31.037Z,2.83
2022-10-30T00:12:32.807Z,2.78
2022-10-30T00:13:34.547Z,2.47
2022-10-30T00:14:36.239Z,2.78
2022-10-30T00:15:38.521Z,2.30
2022-10-30T00:16:40.165Z,2.92
2022-10-30T00:17:41.864Z,2.97
2022-10-30T00:18:43.619Z,2.40
2022-10-30T00:19:45.298Z,2.30
2022-10-30T00:20:47.496Z,2.55
2022-10-30T00:21:49.164Z,2.42
2022-10-30T00:22:50.917Z,2.80
2022-10-30T00:23:53.778Z,2.35
2022-10-30T00:24:55.469Z,2.05
2022-10-30T00:25:57.152Z,2.20
2022-10-30T00:26:58.797Z,2.33
2022-10-30T00:28:00.488Z,2.10
2022-10-30T00:29:02.135Z,2.53
2022-10-30T00:30:04.147Z,2.28
2022-10-30T00:31:06.206Z,2.30
2022-10-30T00:32:08.097Z,2.50
2022-10-30T00:33:09.792Z,1.90
2022-10-30T00:34:11.601Z,2.50
2022-10-30T00:35:13.242Z,1.92
2022-10-30T00:36:14.909Z,2.17
2022-10-30T00:37:16.809Z,2.40
2022-10-30T00:38:18.496Z,2.38
2022-10-30T00:39:20.149Z,2.45
2022-10-30T00:40:22.253Z,2.55
2022-10-30T00:41:25.228Z,2.60
2022-10-30T00:42:30.421Z,2.22
2022-10-30T00:43:36.756Z,2.38
2022-10-30T00:44:53.145Z,2.30
2022-10-30T00:45:56.091Z,2.58
2022-10-30T00:46:59.381Z,2.22
2022-10-30T00:48:03.950Z,2.60
2022-10-30T00:49:16.915Z,2.50
2022-10-30T00:50:38.818Z,2.63
2022-10-30T00:51:45.241Z,2.22
2022-10-30T00:52:52.863Z,2.40
2022-10-30T00:53:58.090Z,1.95
2022-10-30T00:55:04.740Z,2.42
2022-10-30T00:56:08.829Z,2.63
2022-10-30T00:57:10.747Z,2.22
2022-10-30T00:58:17.276Z,2.30
2022-10-30T00:59:25.263Z,2.72
2022-10-30T01:00:28.900Z,2.25
2022-10-30T01:01:36.813Z,2.42
2022-10-30T01:02:40.595Z,2.50
2022-10-30T01:03:42.436Z,2.80
2022-10-30T01:04:46.356Z,2.17
2022-10-30T01:05:51.792Z,2.20
2022-10-30T01:06:53.822Z,2.38
2022-10-30T01:07:55.701Z,1.98
2022-10-30T01:09:00.011Z,2.05
2022-10-30T01:10:02.173Z,2.22
2022-10-30T01:11:05.474Z,2.05
2022-10-30T01:12:07.772Z,2.58
2022-10-30T01:13:09.827Z,2.85
2022-10-30T01:14:14.571Z,2.80
2022-10-30T01:15:16.476Z,3.45
2022-10-30T01:16:53.517Z,3.72
2022-10-30T01:18:41.521Z,3.70
2022-10-30T01:19:56.955Z,4.20
2022-10-30T01:21:19.692Z,4.72
2022-10-30T01:22:39.566Z,4.80
2022-10-30T01:23:50.301Z,4.53
2022-10-30T01:25:03.915Z,5.07
2022-10-30T01:26:27.178Z,4.70
2022-10-30T01:27:40.458Z,4.38
2022-10-30T01:29:12.192Z,4.90
2022-10-30T01:30:25.967Z,4.65
2022-10-30T01:31:41.303Z,5.07
2022-10-30T01:33:03.976Z,4.72
2022-10-30T01:34:19.975Z,4.47
2022-10-30T01:35:32.447Z,4.55
2022-10-30T01:36:40.787Z,4.63
2022-10-30T01:37:48.574Z,4.40
2022-10-30T01:39:22.698Z,4.93
2022-10-30T01:40:24.478Z,4.55
2022-10-30T01:41:26.188Z,4.00
2022-10-30T01:42:46.718Z,4.40
2022-10-30T01:43:53.265Z,4.18
2022-10-30T01:44:54.953Z,4.03
2022-10-30T01:46:24.235Z,3.90
2022-10-30T01:47:46.799Z,4.18
2022-10-30T01:49:17.721Z,4.53
2022-10-30T01:50:57.236Z,3.97
2022-10-30T01:52:26.712Z,4.10
2022-10-30T01:53:46.963Z,4.13
2022-10-30T01:55:08.201Z,3.83
2022-10-30T01:56:27.709Z,3.90
2022-10-30T01:57:34.639Z,3.95
2022-10-30T01:59:15.886Z,3.45
2022-10-30T02:00:20.232Z,3.70
2022-10-30T02:01:24.062Z,3.67
2022-10-30T02:02:26.494Z,3.53
2022-10-30T02:03:28.439Z,3.35
2022-10-30T02:04:31.076Z,3.60
2022-10-30T02:05:44.067Z,3.95
2022-10-30T02:06:46.047Z,3.53
2022-10-30T02:07:47.834Z,3.70
2022-10-30T02:08:49.490Z,3.45
2022-10-30T02:09:52.691Z,3.40
2022-10-30T02:10:55.557Z,3.40
2022-10-30T02:11:58.296Z,3.40
2022-10-30T02:13:00.087Z,3.30
2022-10-30T02:14:07.051Z,3.70
2022-10-30T02:15:10.105Z,3.60
2022-10-30T02:16:11.951Z,3.42
2022-10-30T02:17:14.005Z,3.30
2022-10-30T02:18:15.863Z,3.50
2022-10-30T02:19:17.917Z,3.35
2022-10-30T02:20:20.578Z,3.58
2022-10-30T02:21:22.526Z,3.20
2022-10-30T02:22:25.069Z,3.47
2022-10-30T02:23:26.910Z,3.25
2022-10-30T02:24:29.344Z,2.78
2022-10-30T02:25:31.158Z,2.97
2022-10-30T02:26:32.882Z,3.17
2022-10-30T02:27:34.526Z,3.13
2022-10-30T02:28:36.901Z,3.08
2022-10-30T02:29:38.642Z,3.17
2022-10-30T02:30:44.274Z,3.17
2022-10-30T02:31:45.974Z,2.95
2022-10-30T02:32:47.759Z,3.53
2022-10-30T02:33:49.687Z,2.72
2022-10-30T02:34:51.335Z,2.85
2022-10-30T02:35:53.428Z,3.28
2022-10-30T02:36:55.108Z,2.80
2022-10-30T02:37:57.127Z,2.88
2022-10-30T02:39:00.218Z,3.40
2022-10-30T02:40:06.100Z,2.95
2022-10-30T02:41:07.790Z,2.88
2022-10-30T02:42:09.427Z,3.20
2022-10-30T02:43:11.070Z,3.30
2022-10-30T02:44:12.756Z,3.20
2022-10-30T02:45:14.437Z,3.38
2022-10-30T02:46:16.154Z,3.47
2022-10-30T02:47:17.849Z,3.40
2022-10-30T02:48:19.537Z,3.13
2022-10-30T02:49:21.220Z,3.15
2022-10-30T02:50:22.860Z,3.70
2022-10-30T02:51:24.569Z,3.13
2022-10-30T02:52:26.228Z,3.17
2022-10-30T02:53:27.961Z,3.65
2022-10-30T02:54:29.622Z,4.05
2022-10-30T02:55:31.294Z,4.13
2022-10-30T02:56:32.985Z,3.80
2022-10-30T02:57:34.657Z,5.03
2022-10-30T02:58:36.783Z,4.40
2022-10-30T02:59:38.531Z,4.20
2022-10-30T03:00:40.169Z,4.35
2022-10-30T03:01:42.030Z,4.93
2022-10-30T03:02:43.790Z,4.65
2022-10-30T03:03:46.297Z,4.22
2022-10-30T03:04:48.077Z,4.43
2022-10-30T03:05:49.795Z,4.45
2022-10-30T03:06:51.493Z,4.65
2022-10-30T03:07:55.115Z,4.93
2022-10-30T03:08:56.941Z,4.57
2022-10-30T03:09:58.637Z,4.22
2022-10-30T03:11:05.951Z,4.47
2022-10-30T03:12:08.020Z,4.05
2022-10-30T03:13:09.679Z,3.90
2022-10-30T03:14:11.902Z,3.40
2022-10-30T03:15:13.595Z,3.97
2022-10-30T03:16:17.239Z,3.78
2022-10-30T03:17:18.892Z,3.50
2022-10-30T03:18:20.668Z,3.15
2022-10-30T03:19:22.404Z,3.55
2022-10-30T03:20:24.105Z,3.75
2022-10-30T03:21:28.074Z,3.65
2022-10-30T03:22:30.075Z,3.83
2022-10-30T03:23:32.063Z,3.53
2022-10-30T03:24:33.734Z,3.45
2022-10-30T03:25:35.384Z,3.75
2022-10-30T03:26:37.025Z,3.63
2022-10-30T03:27:38.719Z,3.42
2022-10-30T03:28:40.376Z,3.65
2022-10-30T03:29:42.027Z,3.63
2022-10-30T03:30:43.731Z,3.60
2022-10-30T03:31:45.472Z,3.83
2022-10-30T03:32:47.179Z,3.85
2022-10-30T03:33:48.901Z,3.38
2022-10-30T03:34:50.577Z,3.42
2022-10-30T03:35:52.265Z,4.00
2022-10-30T03:36:53.923Z,3.75
2022-10-30T03:37:55.586Z,3.70
2022-10-30T03:38:57.330Z,3.58
2022-10-30T03:39:58.973Z,3.70
2022-10-30T03:41:01.018Z,3.35
2022-10-30T03:42:02.674Z,3.25
2022-10-30T03:43:04.467Z,3.50
2022-10-30T03:44:06.159Z,3.45
2022-10-30T03:45:08.378Z,3.92
2022-10-30T03:46:11.221Z,3.97
2022-10-30T03:47:12.877Z,3.35
2022-10-30T03:48:14.804Z,3.75
2022-10-30T03:49:16.496Z,3.60
2022-10-30T03:50:18.132Z,3.70
2022-10-30T03:51:19.779Z,3.97
2022-10-30T03:52:21.444Z,3.63
2022-10-30T03:53:26.240Z,3.88
2022-10-30T03:54:27.934Z,3.50
2022-10-30T03:55:29.776Z,3.75
2022-10-30T03:56:31.454Z,3.80
2022-10-30T03:57:37.270Z,3.70
2022-10-30T03:58:38.966Z,4.05
2022-10-30T03:59:40.674Z,3.85
2022-10-30T04:00:42.341Z,4.00
2022-10-30T04:01:44.136Z,3.63
2022-10-30T04:02:50.776Z,4.07
2022-10-30T04:03:52.421Z,4.03
2022-10-30T04:04:54.113Z,4.65
2022-10-30T04:05:55.772Z,4.15
2022-10-30T04:06:57.457Z,4.00
2022-10-30T04:08:01.586Z,4.25
2022-10-30T04:09:03.520Z,4.50
2022-10-30T04:10:05.560Z,4.28
2022-10-30T04:11:10.245Z,4.05
2022-10-30T04:12:11.966Z,4.78
2022-10-30T04:13:16.064Z,4.07
2022-10-30T04:14:17.714Z,5.00
2022-10-30T04:15:19.408Z,4.90
2022-10-30T04:16:21.058Z,4.47
2022-10-30T04:17:22.740Z,4.72
2022-10-30T04:18:25.125Z,4.03
2022-10-30T04:19:26.809Z,4.32
2022-10-30T04:20:29.215Z,4.60
2022-10-30T04:21:30.893Z,4.40
2022-10-30T04:22:32.686Z,4.80
2022-10-30T04:23:34.411Z,4.35
2022-10-30T04:24:36.050Z,4.80
2022-10-30T04:25:37.748Z,4.30
2022-10-30T04:26:39.391Z,4.78
2022-10-30T04:27:45.124Z,4.70
2022-10-30T04:28:48.237Z,4.38
2022-10-30T04:29:49.890Z,4.75
2022-10-30T04:30:51.585Z,4.45
2022-10-30T04:31:53.484Z,4.13
2022-10-30T04:32:57.287Z,4.22
2022-10-30T04:33:59.515Z,4.85
2022-10-30T04:35:01.146Z,4.72
2022-10-30T04:36:02.808Z,5.30
2022-10-30T04:37:05.252Z,5.15
2022-10-30T04:38:10.219Z,5.32
2022-10-30T04:39:11.930Z,4.88
2022-10-30T04:40:13.603Z,4.88
2022-10-30T04:41:15.261Z,5.13
2022-10-30T04:42:17.071Z,5.20
2022-10-30T04:43:18.714Z,5.30
2022-10-30T04:44:20.423Z,4.95
2022-10-30T04:45:22.188Z,5.40
2022-10-30T04:46:23.894Z,5.35
2022-10-30T04:47:25.632Z,5.35
2022-10-30T04:48:27.514Z,5.82
2022-10-30T04:49:29.143Z,5.45
2022-10-30T04:50:31.967Z,5.95
2022-10-30T04:51:33.756Z,5.25
2022-10-30T04:52:35.455Z,6.13
2022-10-30T04:53:37.347Z,6.13
2022-10-30T04:54:39.053Z,3.60
2022-10-30T04:55:40.779Z,5.00
2022-10-30T04:56:42.461Z,5.15
2022-10-30T04:57:44.116Z,5.10
2022-10-30T04:58:45.771Z,4.78
2022-10-30T04:59:47.448Z,4.85
2022-10-30T05:00:49.138Z,5.60
2022-10-30T05:01:50.891Z,5.50
2022-10-30T05:02:53.068Z,5.50
2022-10-30T05:03:55.107Z,5.75
2022-10-30T05:04:56.888Z,5.95
2022-10-30T05:06:02.164Z,5.95
2022-10-30T05:07:03.906Z,5.75
2022-10-30T05:08:05.645Z,6.00
2022-10-30T05:09:07.304Z,5.50
2022-10-30T05:10:12.386Z,5.68
2022-10-30T05:11:14.088Z,5.18
2022-10-30T05:12:17.082Z,5.30
2022-10-30T05:13:18.724Z,5.95
2022-10-30T05:14:20.404Z,5.03
2022-10-30T05:15:22.295Z,5.10
2022-10-30T05:16:23.982Z,5.32
2022-10-30T05:17:25.712Z,5.40
2022-10-30T05:18:27.447Z,5.38
2022-10-30T05:19:29.210Z,5.57
2022-10-30T05:20:30.878Z,5.28
2022-10-30T05:21:32.558Z,5.32
2022-10-30T05:22:34.320Z,5.60
2022-10-30T05:23:35.956Z,5.68
2022-10-30T05:24:37.625Z,5.60
2022-10-30T05:25:39.319Z,5.72
2022-10-30T05:26:41.139Z,5.07
2022-10-30T05:27:42.838Z,5.30
2022-10-30T05:28:44.548Z,5.13
2022-10-30T05:29:46.201Z,5.47
2022-10-30T05:30:47.898Z,6.05
2022-10-30T05:31:49.611Z,5.47
2022-10-30T05:32:51.259Z,5.82
2022-10-30T05:33:52.908Z,6.10
2022-10-30T05:34:54.553Z,5.47
2022-10-30T05:35:56.208Z,6.03
2022-10-30T05:36:57.875Z,5.85
2022-10-30T05:38:00.784Z,5.35
2022-10-30T05:39:03.097Z,5.43
2022-10-30T05:40:05.238Z,6.00
2022-10-30T05:41:06.960Z,5.93
2022-10-30T05:42:13.566Z,6.20
2022-10-30T05:43:15.677Z,5.72
2022-10-30T05:44:28.840Z,6.07
2022-10-30T05:47:42.899Z,5.13
2022-10-30T05:48:44.569Z,5.00
2022-10-30T05:49:46.215Z,4.35
2022-10-30T05:50:47.927Z,3.75
2022-10-30T05:51:49.593Z,3.80
2022-10-30T05:52:58.393Z,3.72
2022-10-30T05:54:00.057Z,3.67
2022-10-30T05:55:01.780Z,3.80
2022-10-30T05:56:03.640Z,4.60
2022-10-30T05:57:05.286Z,4.68
2022-10-30T05:58:07.333Z,7.97
2022-10-30T05:59:08.995Z,8.55
2022-10-30T06:00:11.642Z,8.13
2022-10-30T06:01:13.377Z,8.43
2022-10-30T06:02:17.137Z,8.02
2022-10-30T06:03:18.873Z,7.05
2022-10-30T06:04:20.504Z,7.57
2022-10-30T06:05:22.154Z,7.03
2022-10-30T06:06:23.851Z,7.32
2022-10-30T06:07:25.516Z,6.38
2022-10-30T06:08:27.227Z,6.72
2022-10-30T06:09:28.880Z,6.40
2022-10-30T06:10:30.729Z,6.40
2022-10-30T06:11:32.441Z,6.60
2022-10-30T06:12:34.198Z,6.43
2022-10-30T06:13:35.883Z,5.85
2022-10-30T06:14:37.523Z,5.90
2022-10-30T06:15:39.219Z,6.53
2022-10-30T06:16:40.873Z,6.22
2022-10-30T06:17:42.626Z,6.00
2022-10-30T06:18:44.272Z,7.57
2022-10-30T06:19:45.908Z,6.18
2022-10-30T06:20:47.594Z,5.40
2022-10-30T06:21:49.355Z,6.30
2022-10-30T06:23:10.421Z,6.80
2022-10-30T06:24:12.294Z,6.10
2022-10-30T06:25:14.096Z,6.50
2022-10-30T06:26:15.768Z,6.47
2022-10-30T06:27:17.406Z,5.90
2022-10-30T06:28:19.051Z,6.28
2022-10-30T06:29:20.695Z,5.57
2022-10-30T06:30:22.964Z,5.90
2022-10-30T06:31:24.727Z,5.47
2022-10-30T06:32:26.391Z,5.30
2022-10-30T06:33:28.160Z,5.72
2022-10-30T06:34:29.945Z,5.55
2022-10-30T06:35:32.105Z,5.07
2022-10-30T06:36:58.574Z,5.03
2022-10-30T06:38:00.541Z,5.03
2022-10-30T06:39:02.358Z,5.28
2022-10-30T06:40:04.629Z,5.65
2022-10-30T06:41:06.276Z,4.47
2022-10-30T06:42:08.355Z,5.20
2022-10-30T06:43:10.115Z,4.65
2022-10-30T06:44:11.892Z,5.28
2022-10-30T06:45:14.735Z,5.43
2022-10-30T06:46:16.412Z,5.43
2022-10-30T06:47:18.169Z,4.60
2022-10-30T06:48:19.845Z,5.60
2022-10-30T06:49:21.504Z,4.82
2022-10-30T06:50:24.311Z,4.68
2022-10-30T06:51:26.057Z,4.55
2022-10-30T06:52:27.727Z,4.65
2022-10-30T06:53:29.567Z,4.38
2022-10-30T06:54:31.264Z,4.90
2022-10-30T06:55:33.153Z,4.15
2022-10-30T06:56:34.958Z,4.18
2022-10-30T06:57:36.672Z,4.57
2022-10-30T06:58:39.376Z,3.75
2022-10-30T06:59:41.020Z,4.40
2022-10-30T07:00:42.803Z,4.00
2022-10-30T07:01:44.707Z,4.50
2022-10-30T07:03:02.257Z,4.55
2022-10-30T07:04:04.456Z,3.78
2022-10-30T07:05:06.263Z,3.90
2022-10-30T07:06:08.269Z,4.40
2022-10-30T07:07:09.929Z,3.47
2022-10-30T07:08:11.955Z,4.32
2022-10-30T07:09:13.701Z,4.22
2022-10-30T07:10:15.491Z,4.40
2022-10-30T07:11:17.273Z,4.90
2022-10-30T07:12:18.964Z,4.05
2022-10-30T07:13:20.658Z,4.20
2022-10-30T07:14:22.337Z,3.97
2022-10-30T07:15:25.006Z,3.55
2022-10-30T07:16:26.681Z,3.65
2022-10-30T07:17:28.353Z,4.10
2022-10-30T07:18:30.148Z,4.47
2022-10-30T07:19:31.846Z,4.05
2022-10-30T07:20:35.241Z,4.22
2022-10-30T07:21:37.105Z,4.35
2022-10-30T07:22:39.438Z,4.10
2022-10-30T07:23:41.091Z,5.32
2022-10-30T07:24:42.734Z,5.22
2022-10-30T07:25:44.394Z,4.97
2022-10-30T07:26:46.049Z,5.68
2022-10-30T07:27:49.883Z,5.47
2022-10-30T07:28:51.580Z,5.30
2022-10-30T07:29:53.237Z,5.05
2022-10-30T07:30:54.945Z,4.90
2022-10-30T07:32:02.729Z,4.47
2022-10-30T07:33:06.832Z,4.30
2022-10-30T07:34:08.565Z,4.80
2022-10-30T07:35:12.797Z,4.00
2022-10-30T07:36:15.180Z,3.60
2022-10-30T07:37:16.904Z,3.97
2022-10-30T07:38:18.537Z,4.05
2022-10-30T07:39:20.193Z,4.40
2022-10-30T07:40:22.053Z,4.05
2022-10-30T07:41:23.730Z,4.20
2022-10-30T07:42:25.406Z,3.85
2022-10-30T07:43:27.061Z,3.50
2022-10-30T07:44:28.715Z,3.47
2022-10-30T07:45:31.627Z,3.90
2022-10-30T07:46:33.321Z,4.00
2022-10-30T07:47:42.090Z,3.50
2022-10-30T07:48:43.739Z,3.55
2022-10-30T07:49:45.538Z,3.63
2022-10-30T07:50:47.181Z,4.03
2022-10-30T07:51:48.827Z,4.10
2022-10-30T07:52:50.641Z,3.20
2022-10-30T07:53:52.313Z,3.30
2022-10-30T07:54:54.001Z,3.10
2022-10-30T07:55:56.119Z,2.65
2022-10-30T07:56:59.059Z,2.70
2022-10-30T07:58:00.899Z,2.80
2022-10-30T07:59:02.869Z,3.15
2022-10-30T08:00:10.450Z,3.17
2022-10-30T08:01:12.183Z,3.15
2022-10-30T08:02:14.620Z,2.72
2022-10-30T08:03:16.402Z,3.22
2022-10-30T08:04:18.105Z,2.78
2022-10-30T08:05:19.839Z,3.00
2022-10-30T08:06:24.628Z,3.70
2022-10-30T08:07:32.739Z,3.20
2022-10-30T08:08:37.856Z,3.15
2022-10-30T08:09:43.854Z,3.13
2022-10-30T08:10:45.531Z,3.22
2022-10-30T08:11:47.180Z,3.45
2022-10-30T08:12:48.881Z,3.70
2022-10-30T08:13:50.544Z,3.63
2022-10-30T08:14:53.168Z,3.15
2022-10-30T08:15:54.848Z,3.17
2022-10-30T08:16:57.010Z,3.70
2022-10-30T08:17:59.140Z,3.50
2022-10-30T08:19:01.397Z,3.63
2022-10-30T08:20:03.061Z,3.33
2022-10-30T08:21:04.894Z,3.10
2022-10-30T08:22:06.583Z,3.13
2022-10-30T08:23:09.017Z,3.08
2022-10-30T08:24:10.848Z,3.60
2022-10-30T08:25:12.526Z,3.45
2022-10-30T08:26:14.555Z,3.05
2022-10-30T08:27:16.238Z,3.50
2022-10-30T08:28:17.984Z,3.05
2022-10-30T08:29:19.703Z,3.20
2022-10-30T08:30:22.525Z,3.47
2022-10-30T08:31:24.188Z,3.33
2022-10-30T08:32:25.852Z,2.50
2022-10-30T08:33:27.519Z,3.08
2022-10-30T08:34:31.760Z,3.35
2022-10-30T08:35:33.574Z,2.88
2022-10-30T08:36:35.306Z,2.90
2022-10-30T08:37:36.990Z,3.25
2022-10-30T08:38:38.651Z,3.00
2022-10-30T08:39:40.296Z,2.60
2022-10-30T08:40:42.195Z,3.15
2022-10-30T08:41:44.592Z,3.75
2022-10-30T08:42:57.280Z,3.00
2022-10-30T08:43:58.936Z,4.20
2022-10-30T08:45:00.576Z,2.72
2022-10-30T08:46:02.324Z,3.10
2022-10-30T08:47:04.000Z,3.08
2022-10-30T08:48:06.511Z,3.33
2022-10-30T08:49:08.184Z,3.33
2022-10-30T08:50:10.017Z,3.22
2022-10-30T08:51:11.787Z,2.97
2022-10-30T08:52:13.433Z,3.03
2022-10-30T08:53:16.184Z,3.35
2022-10-30T08:54:17.900Z,3.42
2022-10-30T08:55:19.581Z,2.95
2022-10-30T08:56:21.223Z,3.03
2022-10-30T08:57:22.918Z,2.92
2022-10-30T08:58:24.620Z,3.20
2022-10-30T08:59:26.305Z,3.20
2022-10-30T09:00:28.202Z,3.28
2022-10-30T09:01:29.905Z,3.20
2022-10-30T09:02:31.795Z,2.97
2022-10-30T09:03:33.589Z,3.30
2022-10-30T09:04:36.140Z,2.95
2022-10-30T09:05:38.011Z,3.47
2022-10-30T09:06:39.699Z,2.90
2022-10-30T09:07:41.371Z,3.13
2022-10-30T09:08:43.088Z,2.78
2022-10-30T09:09:44.787Z,2.83
2022-10-30T09:10:46.456Z,3.08
2022-10-30T09:11:49.189Z,2.80
2022-10-30T09:13:02.584Z,2.92
2022-10-30T09:14:04.246Z,3.10
2022-10-30T09:15:07.007Z,3.10
2022-10-30T09:16:08.660Z,2.95
2022-10-30T09:17:10.418Z,2.60
2022-10-30T09:18:12.123Z,3.00
2022-10-30T09:19:18.567Z,2.40
2022-10-30T09:20:20.596Z,2.90
2022-10-30T09:21:22.260Z,2.72
2022-10-30T09:22:23.974Z,2.90
2022-10-30T09:23:25.630Z,2.92
2022-10-30T09:24:27.332Z,2.65
2022-10-30T09:25:29.023Z,2.65
2022-10-30T09:26:30.682Z,2.65
2022-10-30T09:27:32.385Z,2.95
2022-10-30T09:28:34.106Z,2.80
2022-10-30T09:29:36.024Z,2.72
2022-10-30T09:30:38.099Z,2.92
2022-10-30T09:31:40.064Z,2.90
2022-10-30T09:32:41.803Z,2.55
2022-10-30T09:33:43.441Z,3.03
2022-10-30T09:34:45.482Z,3.33
2022-10-30T09:35:47.140Z,2.47
2022-10-30T09:36:49.724Z,3.00
2022-10-30T09:37:51.404Z,3.00
2022-10-30T09:38:55.560Z,2.90
2022-10-30T09:39:57.198Z,2.97
2022-10-30T09:41:10.573Z,2.67
2022-10-30T09:42:18.221Z,2.85
2022-10-30T09:43:26.008Z,3.25
2022-10-30T09:45:15.334Z,2.60
2022-10-30T09:46:32.537Z,3.05
2022-10-30T09:48:13.046Z,3.08
2022-10-30T09:49:59.722Z,2.60
2022-10-30T09:51:36.203Z,2.58
2022-10-30T09:52:53.532Z,2.80
2022-10-30T09:54:05.532Z,2.60
2022-10-30T09:55:22.528Z,2.60
2022-10-30T09:56:39.368Z,2.58
2022-10-30T09:57:53.003Z,3.25
2022-10-30T09:59:01.031Z,2.72
2022-10-30T10:00:03.051Z,3.13
2022-10-30T10:01:20.094Z,2.70
2022-10-30T10:02:58.827Z,2.40
2022-10-30T10:04:26.549Z,2.85
2022-10-30T10:05:44.721Z,2.70
2022-10-30T10:06:51.001Z,3.15
2022-10-30T10:08:03.094Z,2.75
2022-10-30T10:09:12.959Z,2.60
2022-10-30T10:10:25.966Z,2.05
2022-10-30T10:11:36.149Z,2.40
2022-10-30T10:13:05.063Z,2.58
2022-10-30T10:14:15.071Z,5.45
2022-10-30T10:15:33.092Z,2.78
2022-10-30T10:16:38.356Z,2.90
2022-10-30T10:17:44.788Z,2.22
2022-10-30T10:18:57.403Z,2.25
2022-10-30T10:20:00.463Z,2.60
2022-10-30T10:21:09.860Z,2.38
2022-10-30T10:22:49.575Z,2.63
2022-10-30T10:24:03.688Z,2.20
2022-10-30T10:25:29.421Z,3.05
2022-10-30T10:26:53.588Z,2.60
2022-10-30T10:27:55.240Z,2.45
2022-10-30T10:29:12.464Z,1.83
2022-10-30T10:30:52.003Z,2.03
2022-10-30T10:32:08.886Z,2.28
2022-10-30T10:33:36.955Z,2.50
2022-10-30T10:35:00.036Z,2.13
2022-10-30T10:36:30.785Z,2.22
2022-10-30T10:37:56.936Z,2.40
2022-10-30T10:39:18.514Z,1.90
2022-10-30T10:41:04.860Z,2.45
2022-10-30T10:42:15.450Z,2.10
2022-10-30T10:43:38.556Z,2.08
2022-10-30T10:45:15.463Z,2.20
2022-10-30T10:46:43.942Z,2.08
2022-10-30T10:47:54.415Z,2.45
2022-10-30T10:49:18.225Z,1.80
2022-10-30T10:50:31.720Z,2.10
2022-10-30T10:51:42.211Z,2.28
2022-10-30T10:52:52.254Z,2.13
2022-10-30T10:54:04.908Z,2.17
2022-10-30T10:55:22.924Z,2.00
2022-10-30T10:56:33.264Z,2.05
2022-10-30T10:57:38.113Z,2.42
2022-10-30T10:58:55.460Z,2.40
2022-10-30T11:00:02.855Z,2.47
2022-10-30T11:01:09.588Z,2.85
2022-10-30T11:02:14.230Z,2.03
2022-10-30T11:03:22.034Z,2.08
2022-10-30T11:04:41.843Z,2.10
2022-10-30T11:06:02.246Z,4.43
2022-10-30T11:07:18.030Z,1.90
2022-10-30T11:08:31.259Z,2.08
2022-10-30T11:09:32.902Z,2.08
2022-10-30T11:10:34.586Z,2.40
2022-10-30T11:11:37.327Z,1.98
2022-10-30T11:12:38.999Z,2.00
2022-10-30T11:13:42.573Z,2.10
2022-10-30T11:14:44.420Z,2.25
2022-10-30T11:15:46.024Z,1.90
2022-10-30T11:16:55.366Z,2.20
2022-10-30T11:19:09.584Z,2.20
2022-10-30T11:20:42.612Z,1.80
2022-10-30T11:21:50.957Z,2.47
2022-10-30T11:22:52.701Z,2.20
2022-10-30T11:23:54.449Z,2.00
2022-10-30T11:24:56.098Z,1.70
2022-10-30T11:25:57.817Z,2.10
2022-10-30T11:27:25.041Z,2.10
2022-10-30T11:28:42.487Z,2.05
2022-10-30T11:29:56.568Z,2.08
2022-10-30T11:31:21.585Z,1.95
2022-10-30T11:32:27.614Z,2.00
2022-10-30T11:33:30.682Z,2.53
2022-10-30T11:34:39.175Z,2.15
2022-10-30T11:35:42.619Z,2.35
2022-10-30T11:36:45.722Z,2.05
2022-10-30T11:37:50.321Z,2.30
2022-10-30T11:38:56.020Z,1.88
2022-10-30T11:40:17.514Z,2.58
2022-10-30T11:41:20.559Z,2.72
2022-10-30T11:42:22.265Z,2.78
2022-10-30T11:43:25.687Z,2.45
2022-10-30T11:44:51.919Z,2.40
2022-10-30T11:45:54.401Z,2.17
2022-10-30T11:46:56.805Z,2.35
2022-10-30T11:48:02.750Z,2.25
2022-10-30T11:49:05.562Z,2.40
2022-10-30T11:50:20.094Z,2.17
2022-10-30T11:51:39.809Z,2.10
2022-10-30T11:52:43.114Z,2.13
2022-10-30T11:53:50.480Z,1.85
2022-10-30T11:54:57.267Z,2.30
2022-10-30T11:55:59.068Z,2.40
2022-10-30T11:57:00.787Z,2.30
2022-10-30T11:58:03.211Z,2.15
2022-10-30T11:59:05.927Z,2.28
2022-10-30T12:00:16.767Z,1.98
2022-10-30T12:01:27.486Z,2.58
2022-10-30T12:02:30.593Z,2.50
2022-10-30T12:03:38.358Z,2.47
2022-10-30T12:04:40.062Z,2.75
2022-10-30T12:05:44.923Z,2.72
2022-10-30T12:06:48.208Z,3.15
2022-10-30T12:07:49.897Z,3.30
2022-10-30T12:09:04.664Z,2.45
2022-10-30T12:10:27.432Z,2.35
2022-10-30T12:11:34.403Z,2.50
2022-10-30T12:12:42.747Z,2.28
2022-10-30T12:13:44.847Z,2.50
2022-10-30T12:14:46.708Z,2.72
2022-10-30T12:15:51.559Z,2.90
2022-10-30T12:16:56.317Z,2.85
2022-10-30T12:18:02.630Z,2.50
2022-10-30T12:19:09.348Z,2.78
2022-10-30T12:20:15.228Z,2.42
2022-10-30T12:21:19.577Z,2.50
2022-10-30T12:22:39.666Z,2.40
2022-10-30T12:23:41.417Z,2.67
2022-10-30T12:24:44.157Z,2.22
2022-10-30T12:25:51.415Z,1.95
2022-10-30T12:26:55.680Z,2.65
2022-10-30T12:28:14.956Z,2.40
2022-10-30T12:29:20.840Z,2.47
2022-10-30T12:30:22.502Z,2.45
2022-10-30T12:31:32.781Z,3.00
2022-10-30T12:32:46.618Z,2.17
2022-10-30T12:33:58.896Z,2.10
2022-10-30T12:35:08.838Z,2.28
2022-10-30T12:36:18.883Z,2.28
2022-10-30T12:37:29.496Z,2.20
2022-10-30T12:38:39.314Z,2.47
2022-10-30T12:40:10.817Z,2.63
2022-10-30T12:41:12.546Z,2.30
2022-10-30T12:42:17.054Z,2.30
2022-10-30T12:43:27.409Z,2.05
2022-10-30T12:44:35.015Z,2.83
2022-10-30T12:45:43.643Z,2.83
2022-10-30T12:47:01.417Z,3.03
2022-10-30T12:48:24.151Z,2.83
2022-10-30T12:49:31.259Z,3.20
2022-10-30T12:50:45.396Z,2.80
2022-10-30T12:51:57.124Z,3.17
2022-10-30T12:53:11.950Z,2.90
2022-10-30T12:54:22.939Z,3.30
2022-10-30T12:56:37.574Z,2.88
2022-10-30T12:57:44.742Z,3.05
2022-10-30T12:59:10.440Z,2.80
2022-10-30T13:00:18.126Z,3.00
2022-10-30T13:01:27.178Z,2.90
2022-10-30T13:02:31.626Z,3.00
2022-10-30T13:03:39.391Z,2.80
2022-10-30T13:04:46.443Z,2.95
2022-10-30T13:05:57.385Z,2.72
2022-10-30T13:07:36.875Z,3.10
2022-10-30T13:09:06.605Z,3.15
2022-10-30T13:10:32.460Z,2.80
2022-10-30T13:11:57.264Z,3.08
2022-10-30T13:13:15.687Z,2.78
2022-10-30T13:14:21.672Z,2.70
2022-10-30T13:15:57.736Z,2.53
2022-10-30T13:16:59.427Z,3.03
2022-10-30T13:18:14.078Z,3.50
2022-10-30T13:19:15.798Z,2.95
2022-10-30T13:20:18.648Z,4.07
2022-10-30T13:21:40.748Z,3.63
2022-10-30T13:22:52.483Z,3.03
2022-10-30T13:24:10.589Z,3.17
2022-10-30T13:25:21.475Z,3.15
2022-10-30T13:26:41.178Z,3.33
2022-10-30T13:27:52.825Z,3.40
2022-10-30T13:29:12.793Z,3.35
2022-10-30T13:30:17.746Z,3.15
2022-10-30T13:31:23.977Z,2.80
2022-10-30T13:32:26.948Z,3.45
2022-10-30T13:33:42.077Z,3.25
2022-10-30T13:34:58.957Z,2.90
2022-10-30T13:36:10.557Z,3.55
2022-10-30T13:37:12.183Z,3.67
2022-10-30T13:38:38.610Z,4.00
2022-10-30T13:39:56.875Z,3.83
2022-10-30T13:41:03.871Z,3.63
2022-10-30T13:42:42.527Z,3.25
2022-10-30T13:44:02.151Z,3.17
2022-10-30T13:45:09.236Z,3.70
2022-10-30T13:46:43.462Z,3.63
2022-10-30T13:48:00.475Z,4.03
2022-10-30T13:49:14.485Z,4.93
2022-10-30T13:50:31.115Z,4.13
2022-10-30T13:51:44.244Z,4.13
2022-10-30T13:52:53.839Z,4.15
2022-10-30T13:54:31.031Z,4.10
2022-10-30T13:55:35.083Z,3.90
2022-10-30T13:56:37.191Z,3.95
2022-10-30T13:57:56.479Z,3.83
2022-10-30T13:59:25.388Z,3.70
2022-10-30T14:00:50.435Z,4.10
2022-10-30T14:02:07.010Z,4.03
2022-10-30T14:03:34.273Z,3.88
2022-10-30T14:05:01.740Z,3.58
2022-10-30T14:06:29.523Z,3.58
2022-10-30T14:07:45.859Z,3.30
2022-10-30T14:08:59.541Z,3.10
2022-10-30T14:10:16.165Z,3.30
2022-10-30T14:11:17.828Z,3.72
2022-10-30T14:12:51.299Z,3.67
2022-10-30T14:14:28.360Z,4.75
2022-10-30T14:15:29.947Z,3.88
2022-10-30T14:16:41.755Z,3.30
2022-10-30T14:18:14.459Z,3.30
2022-10-30T14:19:18.152Z,3.13
2022-10-30T14:20:27.021Z,3.67
2022-10-30T14:21:34.800Z,3.65
2022-10-30T14:22:37.806Z,3.75
2022-10-30T14:23:39.561Z,3.75
2022-10-30T14:24:45.507Z,3.38
2022-10-30T14:26:20.505Z,3.72
2022-10-30T14:27:28.485Z,4.55
2022-10-30T14:28:31.255Z,5.65
2022-10-30T14:29:36.186Z,5.03
2022-10-30T14:30:38.400Z,5.50
2022-10-30T14:31:40.207Z,5.45
2022-10-30T14:32:47.919Z,5.75
2022-10-30T14:33:52.356Z,4.07
2022-10-30T14:34:54.801Z,5.47
2022-10-30T14:36:45.810Z,2.78
2022-10-30T14:37:47.462Z,2.35
2022-10-30T14:39:02.443Z,2.38
2022-10-30T14:40:40.506Z,2.20
2022-10-30T14:42:16.216Z,2.83
2022-10-30T14:43:31.322Z,2.22
2022-10-30T14:45:00.502Z,1.92
2022-10-30T14:46:11.427Z,2.10
2022-10-30T14:47:43.145Z,2.00
2022-10-30T14:49:07.558Z,2.25
2022-10-30T14:50:15.389Z,2.20
2022-10-30T14:51:30.140Z,2.45
2022-10-30T14:52:53.191Z,2.45